Time;durP1;ratioP1;P1;durP2;ratioP2;P2;SDS_P1;SDS_P2;PMS_P1;PMS_P2;Temp;Humidity;BMP_temperature;BMP_pressure;BME280_temperature;BME280_humidity;BME280_pressure;Samples;Min_cycle;Max_cycle;Signal;HPM_P1;HPM_P2
2023/07/19 00:02:09;;;;;;;6.30;2.50;;;18.40;99.90;;;;;;5061128;28;20436;-67
2023/07/19 00:04:35;;;;;;;4.83;2.23;;;18.30;1.00;;;;;;5066941;28;20932;-67
2023/07/19 00:07:00;;;;;;;6.07;2.40;;;18.30;1.00;;;;;;5049908;28;20765;-67
2023/07/19 00:09:26;;;;;;;3.60;1.80;;;18.20;99.90;;;;;;5067057;28;20400;-67
2023/07/19 00:11:52;;;;;;;4.55;2.05;;;18.20;99.90;;;;;;5067751;28;20411;-67
2023/07/19 00:14:18;;;;;;;5.67;2.10;;;18.20;1.00;;;;;;5067672;28;20454;-67
2023/07/19 00:16:44;;;;;;;4.90;2.00;;;18.20;1.00;;;;;;5067468;28;20818;-68
2023/07/19 00:19:09;;;;;;;4.93;1.92;;;18.20;99.90;;;;;;5066993;28;20443;-67
2023/07/19 00:21:35;;;;;;;3.80;2.30;;;18.20;99.90;;;;;;5067380;28;21101;-68
2023/07/19 00:24:01;;;;;;;5.60;2.40;;;18.20;99.90;;;;;;5067765;28;20924;-67
2023/07/19 00:26:26;;;;;;;3.72;2.20;;;18.20;99.90;;;;;;5070460;28;20753;-67
2023/07/19 00:28:52;;;;;;;4.63;2.27;;;18.20;1.00;;;;;;5070725;28;20412;-67
2023/07/19 00:31:18;;;;;;;6.00;2.15;;;18.10;1.00;;;;;;5071141;28;20905;-67
2023/07/19 00:33:43;;;;;;;5.03;2.40;;;18.10;99.90;;;;;;5071490;28;20777;-67
2023/07/19 00:36:09;;;;;;;5.20;2.60;;;18.10;99.90;;;;;;5078642;28;20896;-67
2023/07/19 00:38:34;;;;;;;5.93;2.50;;;18.10;77.60;;;;;;5071083;28;20406;-67
2023/07/19 00:41:00;;;;;;;4.70;2.50;;;18.10;41.60;;;;;;5071230;28;20431;-67
2023/07/19 00:43:26;;;;;;;4.80;2.38;;;18.10;1.00;;;;;;5070980;28;20984;-67
2023/07/19 00:45:53;;;;;;;4.60;2.77;;;18.10;99.90;;;;;;5091334;28;20989;-68
2023/07/19 00:48:20;;;;;;;4.80;2.22;;;18.10;1.00;;;;;;5078443;28;20411;-67
2023/07/19 00:50:48;;;;;;;6.45;2.45;;;18.10;65.50;;;;;;5070423;28;20939;-67
2023/07/19 00:53:14;;;;;;;4.05;2.47;;;18.10;1.00;;;;;;5070214;28;20453;-68
2023/07/19 00:55:40;;;;;;;5.50;2.50;;;18.10;91.70;;;;;;5086484;28;20411;-67
2023/07/19 00:58:06;;;;;;;5.15;2.60;;;18.10;71.50;;;;;;5052865;28;20931;-67
2023/07/19 01:00:32;;;;;;;6.25;2.63;;;18.10;99.90;;;;;;5069490;28;20423;-67
2023/07/19 01:02:59;;;;;;;4.67;2.33;;;18.10;99.90;;;;;;5068476;28;20429;-67
2023/07/19 01:05:25;;;;;;;4.65;2.40;;;18.10;1.00;;;;;;5086455;28;20407;-67
2023/07/19 01:07:52;;;;;;;4.87;2.33;;;18.10;1.00;;;;;;5070358;28;20414;-67
2023/07/19 01:10:18;;;;;;;5.55;2.60;;;18.10;99.90;;;;;;5085932;28;20418;-67
2023/07/19 01:12:43;;;;;;;4.72;2.50;;;18.10;99.90;;;;;;5070072;28;20433;-68
2023/07/19 01:15:09;;;;;;;6.50;2.75;;;18.10;99.90;;;;;;5063206;28;20790;-66
2023/07/19 01:17:37;;;;;;;4.57;2.20;;;18.10;99.90;;;;;;5085519;28;20410;-67
2023/07/19 01:20:03;;;;;;;4.65;2.40;;;18.10;1.00;;;;;;5052258;28;20805;-67
2023/07/19 01:22:32;;;;;;;4.50;2.30;;;18.10;99.90;;;;;;5070093;28;20398;-67
2023/07/19 01:24:59;;;;;;;4.38;2.53;;;18.10;1.00;;;;;;5052475;28;20485;-67
2023/07/19 01:27:24;;;;;;;4.70;2.35;;;18.10;1.00;;;;;;5069625;28;20396;-67
2023/07/19 01:29:50;;;;;;;5.87;2.30;;;18.10;99.90;;;;;;5069636;28;20414;-67
2023/07/19 01:32:16;;;;;;;5.22;2.53;;;18.10;99.90;;;;;;5051944;28;20745;-67
2023/07/19 01:34:42;;;;;;;4.95;2.65;;;18.10;1.00;;;;;;5069737;28;20547;-67
2023/07/19 01:37:07;;;;;;;5.30;2.30;;;18.10;1.00;;;;;;5068481;28;20830;-67
2023/07/19 01:39:33;;;;;;;4.67;2.50;;;18.10;48.80;;;;;;5069259;28;20420;-67
2023/07/19 01:41:58;;;;;;;5.95;2.80;;;18.00;1.00;;;;;;5051633;28;20438;-67
2023/07/19 01:44:24;;;;;;;5.63;2.87;;;18.10;1.00;;;;;;5069448;28;20410;-67
2023/07/19 01:46:50;;;;;;;3.17;2.10;;;18.00;1.00;;;;;;5051544;28;20404;-67
2023/07/19 01:49:15;;;;;;;4.53;2.35;;;18.00;1.00;;;;;;5076908;28;20409;-67
2023/07/19 01:51:41;;;;;;;5.63;2.70;;;17.90;52.10;;;;;;5068795;28;20827;-67
2023/07/19 01:54:06;;;;;;;4.13;2.43;;;17.90;18.40;;;;;;5069518;28;20400;-67
2023/07/19 01:56:32;;;;;;;5.13;2.40;;;17.90;1.00;;;;;;5069465;28;20823;-67
2023/07/19 01:58:57;;;;;;;6.30;2.63;;;18.00;13.10;;;;;;5075581;28;20404;-67
2023/07/19 02:01:23;;;;;;;4.63;2.50;;;18.00;99.90;;;;;;5068752;28;20799;-68
2023/07/19 02:03:49;;;;;;;5.28;2.30;;;18.00;99.90;;;;;;5070003;28;20770;-67
2023/07/19 02:06:15;;;;;;;5.00;2.50;;;18.00;99.90;;;;;;5063840;28;20838;-67
2023/07/19 02:08:41;;;;;;;4.80;2.73;;;18.00;99.90;;;;;;5067792;28;20411;-68
2023/07/19 02:11:06;;;;;;;4.13;2.35;;;18.00;99.90;;;;;;5068927;28;20418;-67
2023/07/19 02:13:32;;;;;;;5.30;2.43;;;18.00;99.90;;;;;;5069729;28;20406;-67
2023/07/19 02:15:57;;;;;;;4.83;2.90;;;18.00;99.90;;;;;;5052481;28;20901;-67
2023/07/19 02:18:23;;;;;;;5.25;2.58;;;18.00;99.90;;;;;;5034092;28;20485;-67
2023/07/19 02:20:51;;;;;;;5.73;2.80;;;17.90;1.00;;;;;;5051069;28;20428;-67
2023/07/19 02:23:19;;;;;;;4.85;2.67;;;17.90;1.00;;;;;;5070062;28;20416;-67
2023/07/19 02:25:51;;;;;;;4.10;2.50;;;17.90;1.00;;;;;;5068732;28;20562;-67
2023/07/19 02:28:17;;;;;;;5.80;2.67;;;17.90;1.00;;;;;;5068567;28;20980;-67
2023/07/19 02:30:46;;;;;;;6.32;3.05;;;17.80;41.30;;;;;;5069074;28;20799;-68
2023/07/19 02:33:13;;;;;;;5.37;3.10;;;17.80;35.50;;;;;;5068651;28;20415;-67
2023/07/19 02:35:39;;;;;;;6.90;2.85;;;17.80;21.70;;;;;;5065192;28;20410;-67
2023/07/19 02:38:05;;;;;;;3.72;2.70;;;17.80;99.90;;;;;;5068454;28;20399;-67
2023/07/19 02:40:31;;;;;;;6.13;3.05;;;17.80;99.90;;;;;;5068288;28;20431;-68
2023/07/19 02:42:57;;;;;;;6.10;3.20;;;17.80;99.90;;;;;;5068635;28;20411;-67
2023/07/19 02:45:24;;;;;;;6.25;3.30;;;17.80;99.90;;;;;;5068597;28;20400;-68
2023/07/19 02:47:50;;;;;;;6.05;3.70;;;17.80;99.90;;;;;;5068688;28;20474;-67
2023/07/19 02:50:18;;;;;;;8.90;4.30;;;17.80;99.90;;;;;;5050529;28;20407;-66
2023/07/19 02:52:44;;;;;;;6.33;3.97;;;17.80;99.90;;;;;;5068363;28;20854;-67
2023/07/19 02:55:09;;;;;;;7.65;4.50;;;17.80;99.90;;;;;;5068549;28;20404;-67
2023/07/19 02:57:35;;;;;;;9.30;4.23;;;17.80;99.90;;;;;;5084379;28;20503;-67
2023/07/19 03:00:00;;;;;;;6.72;4.10;;;17.80;99.90;;;;;;5066333;28;20458;-67
2023/07/19 03:02:26;;;;;;;7.65;4.40;;;17.80;99.90;;;;;;5049902;28;20461;-67
2023/07/19 03:04:52;;;;;;;6.28;4.28;;;17.80;99.90;;;;;;5067927;28;20490;-67
2023/07/19 03:07:18;;;;;;;7.40;4.67;;;17.80;99.90;;;;;;5068723;28;20512;-67
2023/07/19 03:09:43;;;;;;;5.65;4.40;;;17.80;99.90;;;;;;5068180;28;20941;-67
2023/07/19 03:12:09;;;;;;;7.57;4.70;;;17.70;99.90;;;;;;5057696;28;20459;-67
2023/07/19 03:14:35;;;;;;;10.07;4.77;;;17.70;99.90;;;;;;5067719;28;20407;-67
2023/07/19 03:17:00;;;;;;;8.38;4.80;;;17.60;99.90;;;;;;5067646;28;20400;-66
2023/07/19 03:19:26;;;;;;;8.80;4.90;;;17.60;99.90;;;;;;5067590;28;20428;-67
2023/07/19 03:21:51;;;;;;;9.23;4.95;;;17.50;99.90;;;;;;5056342;28;20515;-67
2023/07/19 03:24:17;;;;;;;6.90;4.80;;;17.50;99.90;;;;;;5049448;28;20408;-67
2023/07/19 03:26:43;;;;;;;6.93;4.90;;;17.50;99.90;;;;;;5064908;28;20751;-67
2023/07/19 03:29:08;;;;;;;7.75;4.80;;;17.60;99.90;;;;;;5067546;28;20399;-67
2023/07/19 03:31:34;;;;;;;7.47;4.93;;;17.50;99.90;;;;;;5033114;28;20411;-66
2023/07/19 03:34:01;;;;;;;7.45;4.93;;;17.50;99.90;;;;;;5067523;28;20400;-67
2023/07/19 03:36:27;;;;;;;8.50;5.07;;;17.50;99.90;;;;;;5033450;28;20514;-67
2023/07/19 03:38:53;;;;;;;8.43;5.20;;;17.50;99.90;;;;;;5067910;28;20479;-66
2023/07/19 03:41:18;;;;;;;9.03;5.00;;;17.50;99.90;;;;;;5049569;28;20511;-67
2023/07/19 03:43:44;;;;;;;8.03;5.53;;;17.40;99.90;;;;;;5068262;28;20900;-67
2023/07/19 03:46:10;;;;;;;7.72;5.00;;;17.50;99.90;;;;;;5083541;28;20443;-66
2023/07/19 03:48:37;;;;;;;7.20;4.85;;;17.50;99.90;;;;;;5082596;28;20897;-67
2023/07/19 03:51:03;;;;;;;7.15;5.32;;;17.50;99.90;;;;;;5065510;28;20485;-67
2023/07/19 03:53:29;;;;;;;8.15;5.18;;;17.50;99.90;;;;;;5049801;28;20404;-66
2023/07/19 03:55:56;;;;;;;7.82;5.05;;;17.50;99.90;;;;;;5067503;28;20417;-66
2023/07/19 03:58:24;;;;;;;8.77;5.88;;;17.40;99.90;;;;;;5067941;28;20770;-67
2023/07/19 04:00:55;;;;;;;7.50;5.28;;;17.40;99.90;;;;;;5072537;28;20427;-66
2023/07/19 04:03:21;;;;;;;8.27;5.45;;;17.30;99.90;;;;;;5071321;28;20435;-67
2023/07/19 04:05:47;;;;;;;6.70;4.95;;;17.40;99.90;;;;;;5036844;28;20407;-67
2023/07/19 04:08:15;;;;;;;7.47;5.37;;;17.40;99.90;;;;;;5071252;28;20403;-67
2023/07/19 04:10:42;;;;;;;9.75;6.30;;;17.40;99.90;;;;;;5069724;28;20918;-67
2023/07/19 04:13:09;;;;;;;8.52;5.22;;;17.40;99.90;;;;;;5053100;28;20395;-66
2023/07/19 04:15:35;;;;;;;7.50;5.30;;;17.40;99.90;;;;;;5071567;28;20408;-67
2023/07/19 04:18:01;;;;;;;8.00;5.72;;;17.40;1.00;;;;;;5067510;28;20415;-68
2023/07/19 04:20:26;;;;;;;7.97;5.40;;;17.40;1.00;;;;;;5056688;28;20568;-66
2023/07/19 04:22:52;;;;;;;9.40;5.25;;;17.40;1.00;;;;;;5070416;28;20415;-67
2023/07/19 04:25:18;;;;;;;7.10;5.50;;;17.40;1.00;;;;;;5070966;28;20765;-67
2023/07/19 04:27:44;;;;;;;7.70;5.60;;;17.40;1.00;;;;;;5071649;28;20540;-69
2023/07/19 04:30:10;;;;;;;11.48;6.60;;;17.40;1.00;;;;;;5071875;28;20418;-67
2023/07/19 04:32:36;;;;;;;9.10;6.68;;;17.50;1.00;;;;;;5070981;28;20403;-67
2023/07/19 04:35:01;;;;;;;8.23;5.70;;;17.50;1.00;;;;;;5086892;28;20551;-67
2023/07/19 04:37:27;;;;;;;9.15;6.03;;;17.50;1.00;;;;;;5070515;28;20407;-67
2023/07/19 04:39:52;;;;;;;9.13;6.60;;;17.50;1.00;;;;;;5072849;28;20516;-67
2023/07/19 04:42:21;;;;;;;8.77;5.93;;;17.50;1.00;;;;;;5078682;28;20412;-66
2023/07/19 04:44:47;;;;;;;12.10;6.32;;;17.50;1.00;;;;;;5070957;28;20414;-67
2023/07/19 04:47:12;;;;;;;10.10;6.57;;;17.60;1.00;;;;;;5071156;28;20396;-67
2023/07/19 04:49:38;;;;;;;11.80;6.43;;;17.60;1.00;;;;;;5070708;28;20411;-67
2023/07/19 04:52:04;;;;;;;8.07;6.13;;;17.60;1.00;;;;;;5070512;28;20407;-67
2023/07/19 04:54:29;;;;;;;8.15;6.28;;;17.60;1.00;;;;;;5070513;28;20395;-67
2023/07/19 04:56:55;;;;;;;9.17;6.10;;;17.70;1.00;;;;;;5070194;28;20404;-68
2023/07/19 04:59:20;;;;;;;11.47;6.50;;;17.70;1.00;;;;;;5071063;28;21097;-67
2023/07/19 05:01:46;;;;;;;9.48;6.40;;;17.70;1.00;;;;;;5069916;28;21672;-67
2023/07/19 05:04:12;;;;;;;8.80;6.20;;;17.80;1.00;;;;;;5070252;28;20404;-67
2023/07/19 05:06:38;;;;;;;8.88;6.07;;;17.80;1.00;;;;;;5070506;28;20408;-67
2023/07/19 05:09:05;;;;;;;9.87;6.37;;;17.90;1.00;;;;;;5070708;28;20412;-67
2023/07/19 05:11:31;;;;;;;9.98;6.15;;;17.80;1.00;;;;;;5066865;28;20407;-67
2023/07/19 05:13:57;;;;;;;8.55;5.80;;;17.90;99.90;;;;;;5070824;28;20765;-68
2023/07/19 05:16:23;;;;;;;8.52;5.80;;;17.90;99.90;;;;;;5070074;28;20399;-67
2023/07/19 05:18:48;;;;;;;8.70;6.00;;;17.90;99.90;;;;;;5070686;28;20411;-67
2023/07/19 05:21:14;;;;;;;10.80;5.90;;;17.90;99.90;;;;;;5060269;28;20838;-68
2023/07/19 05:23:41;;;;;;;10.83;6.43;;;17.90;99.90;;;;;;5073792;28;20482;-67
2023/07/19 05:26:06;;;;;;;10.57;6.05;;;18.00;99.90;;;;;;5070086;28;20431;-67
2023/07/19 05:28:32;;;;;;;7.93;5.70;;;18.00;99.90;;;;;;5085902;28;20439;-67
2023/07/19 05:31:02;;;;;;;9.75;5.88;;;18.00;99.90;;;;;;5070451;28;20415;-67
2023/07/19 05:33:28;;;;;;;7.00;5.53;;;18.00;99.90;;;;;;5069065;28;21023;-67
2023/07/19 05:35:53;;;;;;;9.35;5.82;;;18.10;99.90;;;;;;5055579;28;20443;-67
2023/07/19 05:38:19;;;;;;;8.10;5.70;;;18.10;99.90;;;;;;5079302;28;20762;-67
2023/07/19 05:40:45;;;;;;;8.70;6.30;;;18.20;99.90;;;;;;5052120;28;20436;-68
2023/07/19 05:43:11;;;;;;;8.27;5.68;;;18.20;99.90;;;;;;5068515;28;20404;-68
2023/07/19 05:45:37;;;;;;;10.10;6.27;;;18.20;99.90;;;;;;5064243;28;20465;-68
2023/07/19 05:48:02;;;;;;;7.93;5.88;;;18.20;99.90;;;;;;5069306;28;20435;-68
2023/07/19 05:50:28;;;;;;;8.67;5.67;;;18.20;99.90;;;;;;5071322;28;20787;-67
2023/07/19 05:52:54;;;;;;;7.93;5.97;;;18.20;99.90;;;;;;5069779;28;20471;-66
2023/07/19 05:55:20;;;;;;;8.03;5.37;;;18.20;99.90;;;;;;5053166;28;20854;-66
2023/07/19 05:57:45;;;;;;;9.98;5.63;;;18.20;99.90;;;;;;5075338;28;20498;-68
2023/07/19 06:00:24;;;;;;;8.10;5.57;;;18.10;99.90;;;;;;5071263;28;20926;-68
2023/07/19 06:02:52;;;;;;;8.68;5.80;;;18.10;99.90;;;;;;5074646;28;20488;-68
2023/07/19 06:05:18;;;;;;;8.70;5.85;;;18.10;99.90;;;;;;5068504;28;20419;-68
2023/07/19 06:07:45;;;;;;;9.15;5.68;;;18.10;99.90;;;;;;5070366;28;20403;-69
2023/07/19 06:10:10;;;;;;;9.60;5.13;;;18.10;99.90;;;;;;5069413;28;20453;-69
2023/07/19 06:12:36;;;;;;;7.73;5.47;;;18.10;99.90;;;;;;5068920;28;20400;-69
2023/07/19 06:15:02;;;;;;;10.05;5.32;;;18.10;99.90;;;;;;5069122;28;20403;-68
2023/07/19 06:17:27;;;;;;;8.50;5.40;;;18.10;99.90;;;;;;5069698;28;20490;-68
2023/07/19 06:19:53;;;;;;;9.18;5.30;;;18.10;99.90;;;;;;5070100;28;20419;-68
2023/07/19 06:22:19;;;;;;;7.60;5.47;;;18.10;99.90;;;;;;5068935;28;20409;-68
2023/07/19 06:24:44;;;;;;;8.02;5.30;;;18.10;99.90;;;;;;5069327;28;20781;-68
2023/07/19 06:27:10;;;;;;;9.33;5.53;;;18.10;99.90;;;;;;5059912;28;20449;-68
2023/07/19 06:29:35;;;;;;;7.57;4.90;;;18.10;99.90;;;;;;5070992;28;20511;-68
2023/07/19 06:32:01;;;;;;;7.63;5.35;;;18.00;99.90;;;;;;5084477;28;20871;-68
2023/07/19 06:34:26;;;;;;;7.77;5.03;;;18.00;99.90;;;;;;5068312;28;20411;-68
2023/07/19 06:36:52;;;;;;;8.68;4.75;;;18.00;99.90;;;;;;5075381;28;20450;-68
2023/07/19 06:39:18;;;;;;;8.73;4.88;;;18.00;99.90;;;;;;5059602;28;20508;-68
2023/07/19 06:41:43;;;;;;;9.00;5.10;;;18.00;99.90;;;;;;5068643;28;20936;-68
2023/07/19 06:44:09;;;;;;;6.97;4.03;;;18.00;99.90;;;;;;5068555;28;20396;-68
2023/07/19 06:46:34;;;;;;;7.50;3.97;;;18.00;99.90;;;;;;5084801;28;20743;-68
2023/07/19 06:49:00;;;;;;;6.23;3.80;;;18.00;99.90;;;;;;5072938;28;20500;-68
2023/07/19 06:51:26;;;;;;;7.07;3.47;;;17.90;99.90;;;;;;5070967;28;20775;-69
2023/07/19 06:53:52;;;;;;;5.57;2.80;;;17.90;99.90;;;;;;5075321;28;20411;-68
2023/07/19 06:56:18;;;;;;;5.75;2.80;;;17.90;99.90;;;;;;5068546;28;20465;-68
2023/07/19 06:58:43;;;;;;;7.20;3.00;;;17.90;99.90;;;;;;5076792;28;20400;-68
2023/07/19 07:01:09;;;;;;;4.47;2.43;;;17.90;99.90;;;;;;5069515;28;20427;-68
2023/07/19 07:03:34;;;;;;;6.93;2.78;;;17.90;99.90;;;;;;5068044;28;20495;-68
2023/07/19 07:06:00;;;;;;;5.90;2.60;;;17.90;99.90;;;;;;5067704;28;20407;-69
2023/07/19 07:08:26;;;;;;;6.40;2.35;;;17.90;99.90;;;;;;5076428;28;20479;-68
2023/07/19 07:10:53;;;;;;;5.87;2.60;;;18.00;99.90;;;;;;5067986;28;20494;-68
2023/07/19 07:13:19;;;;;;;6.53;2.60;;;18.00;99.90;;;;;;5069609;28;20428;-69
2023/07/19 07:15:44;;;;;;;8.00;2.72;;;18.10;99.90;;;;;;5047507;28;20408;-71
2023/07/19 07:18:10;;;;;;;6.67;2.57;;;18.20;99.90;;;;;;5049530;28;20456;-68
2023/07/19 07:20:36;;;;;;;6.45;2.47;;;18.30;99.90;;;;;;5068043;28;20439;-68
2023/07/19 07:23:02;;;;;;;7.07;2.60;;;18.30;99.90;;;;;;5072043;28;20404;-68
2023/07/19 07:25:29;;;;;;;5.95;2.22;;;18.30;99.90;;;;;;5068205;28;20400;-68
2023/07/19 07:27:55;;;;;;;6.95;2.10;;;18.30;99.90;;;;;;5067808;28;20456;-68
2023/07/19 07:30:21;;;;;;;5.78;2.10;;;18.30;99.90;;;;;;5050005;28;20491;-68
2023/07/19 07:32:46;;;;;;;5.77;2.30;;;18.30;99.90;;;;;;5083938;28;20496;-69
2023/07/19 07:35:12;;;;;;;5.77;2.33;;;18.30;99.90;;;;;;5067201;28;20399;-69
2023/07/19 07:37:39;;;;;;;4.85;2.20;;;18.40;99.90;;;;;;5071604;28;20422;-69
2023/07/19 07:40:05;;;;;;;4.97;2.37;;;18.50;99.90;;;;;;5083244;28;20793;-68
2023/07/19 07:42:31;;;;;;;7.63;2.58;;;18.60;99.90;;;;;;5075175;28;20876;-68
2023/07/19 07:44:57;;;;;;;4.80;1.92;;;18.60;35.10;;;;;;5067412;28;20486;-68
2023/07/19 07:47:22;;;;;;;5.07;2.20;;;18.60;22.50;;;;;;5068036;28;20400;-69
2023/07/19 07:49:48;;;;;;;5.47;2.13;;;18.70;56.40;;;;;;5066648;28;20399;-68
2023/07/19 07:52:15;;;;;;;5.70;2.00;;;18.80;38.10;;;;;;5050965;28;20424;-68
2023/07/19 07:54:41;;;;;;;5.57;2.17;;;18.80;21.30;;;;;;5067701;28;20496;-69
2023/07/19 07:57:07;;;;;;;5.40;2.07;;;18.90;39.20;;;;;;5063704;28;20444;-68
2023/07/19 07:59:33;;;;;;;5.32;2.10;;;18.90;1.00;;;;;;5072463;28;20421;-69
2023/07/19 08:01:59;;;;;;;6.88;2.20;;;18.90;1.00;;;;;;5068331;28;20800;-68
2023/07/19 08:04:25;;;;;;;6.53;2.05;;;18.90;1.00;;;;;;5066966;28;20510;-68
2023/07/19 08:06:50;;;;;;;5.73;2.27;;;18.90;1.00;;;;;;5071329;28;20482;-68
2023/07/19 08:09:16;;;;;;;3.45;1.70;;;18.90;1.00;;;;;;5049325;28;20417;-68
2023/07/19 08:11:42;;;;;;;5.07;1.63;;;18.90;1.00;;;;;;5072260;28;20411;-68
2023/07/19 08:14:07;;;;;;;8.00;1.85;;;18.90;1.00;;;;;;5067262;28;20917;-69
2023/07/19 08:16:33;;;;;;;4.65;1.73;;;18.90;1.00;;;;;;5066964;28;20892;-69
2023/07/19 08:18:59;;;;;;;5.73;1.73;;;18.90;1.00;;;;;;5082585;28;20410;-69
2023/07/19 08:21:25;;;;;;;5.60;1.90;;;19.10;1.00;;;;;;5069694;28;20951;-68
2023/07/19 08:23:53;;;;;;;5.57;1.90;;;19.20;22.00;;;;;;5067599;28;20453;-68
2023/07/19 08:26:19;;;;;;;5.87;1.97;;;19.30;1.00;;;;;;5067096;28;20829;-68
2023/07/19 08:28:45;;;;;;;3.95;1.80;;;19.50;1.00;;;;;;5076524;28;20833;-68
2023/07/19 08:31:11;;;;;;;6.83;2.20;;;19.50;1.00;;;;;;5068293;28;20427;-69
2023/07/19 08:33:36;;;;;;;6.03;1.80;;;19.50;1.00;;;;;;5068356;28;20408;-68
2023/07/19 08:36:02;;;;;;;5.67;1.83;;;19.70;99.90;;;;;;5066593;28;20407;-69
2023/07/19 08:38:28;;;;;;;4.38;1.73;;;19.80;99.90;;;;;;5069687;28;20404;-68
2023/07/19 08:41:01;;;;;;;5.47;1.90;;;19.90;99.90;;;;;;5066927;28;20427;-69
2023/07/19 08:43:28;;;;;;;5.13;1.20;;;20.10;99.90;;;;;;5076388;28;20856;-68
2023/07/19 08:45:55;;;;;;;4.93;1.50;;;20.20;27.40;;;;;;5068726;28;20433;-68
2023/07/19 08:48:21;;;;;;;2.92;0.85;;;20.30;99.90;;;;;;5065455;28;20514;-69
2023/07/19 08:50:58;;;;;;;3.88;1.10;;;20.30;1.00;;;;;;5072065;28;20399;-69
2023/07/19 08:53:24;;;;;;;3.75;0.80;;;20.10;99.90;;;;;;5066218;28;20769;-69
2023/07/19 08:55:51;;;;;;;5.97;1.30;;;19.90;1.00;;;;;;5051641;28;20959;-68
2023/07/19 08:58:17;;;;;;;2.85;0.88;;;19.70;1.00;;;;;;5070832;28;20489;-69
2023/07/19 09:00:48;;;;;;;3.67;1.17;;;19.50;31.50;;;;;;5070991;28;20419;-68
2023/07/19 09:03:15;;;;;;;3.75;1.27;;;19.40;99.90;;;;;;5055530;28;20498;-68
2023/07/19 09:05:41;;;;;;;4.27;1.30;;;19.30;99.90;;;;;;5070976;28;20404;-69
2023/07/19 09:08:09;;;;;;;4.43;1.50;;;19.30;47.50;;;;;;5052828;28;20461;-68
2023/07/19 09:10:36;;;;;;;3.72;1.50;;;19.40;99.90;;;;;;5070224;28;20752;-69
2023/07/19 09:13:05;;;;;;;4.93;1.30;;;19.50;99.90;;;;;;5075318;28;20402;-68
2023/07/19 09:15:37;;;;;;;3.60;1.30;;;19.60;1.00;;;;;;5066144;28;20404;-68
2023/07/19 09:18:04;;;;;;;2.25;0.90;;;19.80;1.00;;;;;;5069670;28;20441;-67
2023/07/19 09:20:30;;;;;;;4.65;0.90;;;20.00;99.90;;;;;;5072961;28;20872;-68
2023/07/19 09:23:03;;;;;;;3.40;1.08;;;20.00;1.00;;;;;;5078747;28;20410;-68
2023/07/19 09:25:28;;;;;;;3.83;0.90;;;20.20;99.90;;;;;;5070361;28;20426;-69
2023/07/19 09:27:54;;;;;;;3.47;1.15;;;20.60;99.90;;;;;;5070597;28;20922;-69
2023/07/19 09:30:20;;;;;;;4.63;1.17;;;20.80;98.50;;;;;;5072244;28;20452;-68
2023/07/19 09:33:00;;;;;;;3.20;0.90;;;20.90;99.90;;;;;;5075628;28;20420;-68
2023/07/19 09:35:27;;;;;;;2.20;0.60;;;20.80;99.90;;;;;;5073270;28;20419;-68
2023/07/19 09:37:53;;;;;;;2.58;0.70;;;20.70;1.00;;;;;;5073547;28;20413;-68
2023/07/19 09:40:19;;;;;;;3.33;0.77;;;20.60;1.00;;;;;;5070332;28;20511;-68
2023/07/19 09:42:45;;;;;;;3.83;0.68;;;20.50;1.00;;;;;;5069466;28;20396;-68
2023/07/19 09:45:11;;;;;;;4.68;0.57;;;20.50;1.00;;;;;;5072782;28;20407;-69
2023/07/19 09:47:39;;;;;;;4.68;0.93;;;20.50;1.00;;;;;;5070238;28;20789;-69
2023/07/19 09:50:06;;;;;;;3.10;0.95;;;20.50;1.00;;;;;;5068919;28;20434;-68
2023/07/19 09:52:37;;;;;;;3.03;0.80;;;20.60;1.00;;;;;;5069595;28;20449;-69
2023/07/19 09:55:05;;;;;;;3.20;0.70;;;20.80;99.90;;;;;;5069859;28;20411;-69
2023/07/19 09:57:33;;;;;;;2.40;0.60;;;20.90;99.90;;;;;;5068590;28;20889;-69
2023/07/19 09:59:59;;;;;;;2.88;0.70;;;21.20;99.90;;;;;;5084967;28;20933;-69
2023/07/19 10:02:26;;;;;;;1.83;0.50;;;21.70;99.90;;;;;;5069335;28;20391;-69
2023/07/19 10:04:52;;;;;;;3.90;0.80;;;22.20;53.70;;;;;;5069294;28;20508;-69
2023/07/19 10:07:25;;;;;;;1.90;0.50;;;22.50;99.90;;;;;;5069484;28;20404;-69
2023/07/19 10:10:01;;;;;;;2.45;0.45;;;22.60;48.40;;;;;;5051024;28;20501;-69
2023/07/19 10:12:27;;;;;;;2.95;0.60;;;22.60;1.00;;;;;;5069167;28;20406;-69
2023/07/19 10:14:58;;;;;;;2.25;0.45;;;22.60;99.90;;;;;;5068784;28;20407;-69
2023/07/19 10:17:26;;;;;;;2.40;0.50;;;22.60;99.90;;;;;;5058864;28;20412;-68
2023/07/19 10:20:03;;;;;;;1.55;0.52;;;22.30;99.90;;;;;;5068776;28;20431;-69
2023/07/19 10:22:51;;;;;;;2.80;0.50;;;22.20;99.90;;;;;;5068830;28;20412;-69
2023/07/19 10:25:31;;;;;;;2.13;0.30;;;22.30;99.90;;;;;;5067219;28;20402;-69
2023/07/19 10:28:11;;;;;;;3.00;0.60;;;22.50;99.90;;;;;;5068568;28;20434;-69
2023/07/19 10:30:48;;;;;;;2.47;0.50;;;22.50;99.90;;;;;;5068879;28;20423;-69
2023/07/19 10:33:19;;;;;;;1.85;0.30;;;22.50;99.90;;;;;;5065512;28;20450;-69
2023/07/19 10:35:46;;;;;;;2.00;0.50;;;22.30;99.90;;;;;;5068600;28;20412;-69
2023/07/19 10:38:20;;;;;;;2.72;0.40;;;22.40;99.90;;;;;;5068850;28;20864;-69
2023/07/19 10:40:50;;;;;;;1.60;0.30;;;22.80;99.90;;;;;;5068410;28;20920;-69
2023/07/19 10:43:15;;;;;;;2.30;0.40;;;22.90;99.90;;;;;;5068804;28;20487;-69
2023/07/19 10:45:41;;;;;;;2.90;0.33;;;23.10;99.90;;;;;;5068136;28;20511;-70
2023/07/19 10:48:07;;;;;;;1.48;0.35;;;23.20;99.90;;;;;;5068336;28;20400;-69
2023/07/19 10:50:33;;;;;;;2.20;0.38;;;23.30;96.90;;;;;;5050108;28;20735;-69
2023/07/19 10:52:58;;;;;;;1.80;0.28;;;23.50;57.30;;;;;;5068769;28;20398;-69
2023/07/19 10:55:28;;;;;;;2.33;0.27;;;23.60;38.60;;;;;;5068539;28;20396;-70
2023/07/19 10:57:53;;;;;;;1.97;0.30;;;24.00;6.60;;;;;;5068754;28;20400;-70
2023/07/19 11:00:19;;;;;;;1.95;0.32;;;24.10;1.00;;;;;;5068118;28;20952;-69
2023/07/19 11:02:45;;;;;;;1.00;0.30;;;24.20;1.00;;;;;;5068466;28;20400;-69
2023/07/19 11:05:11;;;;;;;2.20;0.30;;;24.20;1.00;;;;;;5067944;28;20404;-69
2023/07/19 11:07:36;;;;;;;2.00;0.30;;;24.20;1.00;;;;;;5068453;28;20391;-69
2023/07/19 11:10:06;;;;;;;1.73;0.30;;;24.30;1.00;;;;;;5067902;28;20408;-69
2023/07/19 11:12:32;;;;;;;1.02;0.20;;;24.60;1.00;;;;;;5067977;28;20900;-69
2023/07/19 11:15:00;;;;;;;2.55;0.30;;;24.50;99.90;;;;;;5067750;28;20410;-69
2023/07/19 11:17:28;;;;;;;1.40;0.30;;;24.50;99.90;;;;;;5068143;28;20486;-69
2023/07/19 11:19:53;;;;;;;1.95;0.30;;;24.60;99.90;;;;;;5067309;28;20431;-69
2023/07/19 11:22:24;;;;;;;1.50;0.28;;;24.90;99.90;;;;;;5067787;28;20999;-69
2023/07/19 11:24:52;;;;;;;1.60;0.20;;;25.20;99.90;;;;;;5067937;28;20434;-69
2023/07/19 11:27:18;;;;;;;2.37;0.40;;;25.30;99.90;;;;;;5068195;28;20402;-70
2023/07/19 11:29:49;;;;;;;0.63;0.25;;;25.20;99.90;;;;;;5067454;28;20923;-70
2023/07/19 11:32:23;;;;;;;1.92;0.40;;;25.10;99.90;;;;;;5068038;28;20403;-69
2023/07/19 11:34:57;;;;;;;1.40;0.20;;;24.90;99.90;;;;;;5063548;28;20460;-70
2023/07/19 11:37:27;;;;;;;2.63;0.30;;;24.60;99.90;;;;;;5067503;28;20473;-69
2023/07/19 11:39:57;;;;;;;1.25;0.20;;;24.40;99.90;;;;;;5067686;28;20412;-70
2023/07/19 11:42:43;;;;;;;1.33;0.20;;;24.30;99.90;;;;;;5068030;28;20411;-69
2023/07/19 11:45:12;;;;;;;2.97;0.40;;;24.00;99.90;;;;;;5050032;28;20778;-69
2023/07/19 11:47:40;;;;;;;3.13;0.30;;;23.80;99.90;;;;;;5068015;28;20774;-69
2023/07/19 11:50:06;;;;;;;1.85;0.30;;;23.70;99.90;;;;;;5067505;28;20422;-69
2023/07/19 11:52:51;;;;;;;1.73;0.43;;;23.60;99.90;;;;;;5066841;28;20403;-69
2023/07/19 11:55:18;;;;;;;3.50;0.23;;;23.60;99.90;;;;;;5063882;28;20414;-69
2023/07/19 11:57:47;;;;;;;1.58;0.28;;;23.60;99.90;;;;;;5067364;28;20404;-69
2023/07/19 12:00:17;;;;;;;0.80;0.20;;;23.90;99.90;;;;;;5067217;28;20470;-69
2023/07/19 12:02:44;;;;;;;0.95;0.30;;;24.30;99.90;;;;;;5067298;28;20415;-69
2023/07/19 12:05:11;;;;;;;2.17;0.40;;;24.60;99.90;;;;;;5066972;28;20951;-69
2023/07/19 12:07:36;;;;;;;1.17;0.30;;;24.90;99.90;;;;;;5049031;28;20909;-69
2023/07/19 12:10:04;;;;;;;2.35;0.35;;;25.10;99.90;;;;;;5067121;28;20406;-69
2023/07/19 12:12:33;;;;;;;1.95;0.35;;;25.20;99.90;;;;;;5067521;28;20404;-69
2023/07/19 12:15:09;;;;;;;1.10;0.28;;;25.20;99.90;;;;;;5065729;28;20408;-69
2023/07/19 12:17:36;;;;;;;1.17;0.20;;;25.40;99.90;;;;;;5067503;28;20439;-70
2023/07/19 12:20:03;;;;;;;2.50;0.30;;;25.40;99.90;;;;;;5049331;28;20505;-70
2023/07/19 12:22:29;;;;;;;1.97;0.47;;;25.60;99.90;;;;;;5071210;28;20477;-69
2023/07/19 12:24:55;;;;;;;0.82;0.20;;;25.70;99.90;;;;;;5070780;28;20526;-70
2023/07/19 12:27:21;;;;;;;1.85;0.20;;;25.60;99.90;;;;;;5087249;28;20423;-69
2023/07/19 12:29:47;;;;;;;1.10;0.20;;;25.50;99.90;;;;;;5070774;28;20492;-70
2023/07/19 12:32:14;;;;;;;1.55;0.30;;;25.50;99.90;;;;;;5071138;28;20403;-69
2023/07/19 12:34:40;;;;;;;1.83;0.20;;;25.60;99.90;;;;;;5070603;28;20410;-70
2023/07/19 12:37:06;;;;;;;0.90;0.20;;;25.80;99.90;;;;;;5071042;28;20399;-69
2023/07/19 12:39:32;;;;;;;1.58;0.20;;;25.90;99.90;;;;;;5070638;28;20468;-70
2023/07/19 12:41:58;;;;;;;1.45;0.20;;;26.00;99.90;;;;;;5070453;28;20408;-69
2023/07/19 12:44:24;;;;;;;1.27;0.10;;;26.30;99.90;;;;;;5071283;28;20400;-69
2023/07/19 12:46:50;;;;;;;2.20;0.30;;;26.50;99.90;;;;;;5070864;28;20794;-69